Alfonso Bonilla Aragon International Airport
SKCL : now visible

Airfield :











YOU CAN JOIN US ON...

 
LOGIN :

Register | Disclaimer

   EN    FR    IT 

 









Legend :    VFR   Marginal VFR   IFR   Intensive IFR   Very Intensive IFR
Visi :
Ceiling :
>= 8 km
>= 3000ft
5 to 8 km
1000 to 3000 ft
1500m to 5 km
500 to 1000 ft
800 to 1500m
200 to 500 ft
< 800m
< 200 ft
Symbols :   Thunderstorms  Fog  Heavy snow  Heavy precipitations  Wind > 20 kt






- Airport Elevation : 3162 ft
- IATA code : CLO


SKCL - Alfonso Bonilla Aragon International

CURRENT METAR :
  • 191600Z VRB02KT 9999 SCT017 32/21 A2996 NOSIG

EXPIRED METARs :
  • 191500Z VRB03KT 9999 FEW017 SCT300 30/20 A2998 NOSIG
  • 191435Z VRB02KT 9999 FEW017 SCT300 29/20 A2999 NOSIG
  • 191400Z VRB02KT 9000 FEW017 SCT300 27/20 A2999 NOSIG RMK HZ
  • 191330Z 12003KT 9000 FEW017 SCT200 27/20 A2998 NOSIG RMK HZ

TAF TAF SKCL
Valid from the 19 at 12:00 until the 20 at 12:00 UTC


191030Z 1912/2012 05005KT 9999 FEW030
TEMPO 1912/1913 6000 VCFG VCSH SCT015
BECMG 1916/1918 32012KT
BECMG 2002/2004 04006KT
TEMPO 2010/2012 5000 VCFG SCT015 TX33/1919Z TN18/2011Z



MET'MAP, your aeronautical weather chart ! - Copyright ORBIFLY December 2007 - Disclaimer

ORBIFLY MET'MAP TEAM :

Programming & Development : Alexandra Zaïnal
Concept & original design : Baudouin d'Aumeries
Assistance for programming : Marc-Olivier Méhu
Technical & hardware support : Manuel Goepfert

Contact : metmap@orbifly.com




SOURCES & CREDITS :

   NOAA       Earth
Advisory